Sunday, August 2, 2015, 4:19 PM EDT
Back to Local

KPTW, Pottstown Limerick Airport

Location: Royersford, PA, United States Lat: 40.233
Local Time: 4:19 PM EDT (20:19 GMT) Lon: -75.55
Time Zone: US/Eastern Elev: 291 ft

Show me the last for .
Show Decoded

2015-08-02 15:54 METAR KPTW 021954Z AUTO 22007KT 10SM SCT075 BKN090 29/13 A2994 RMK AO2 SLP132
                 T02890128 =
2015-08-02 14:54 METAR KPTW 021854Z AUTO 22007KT 10SM BKN075 29/13 A2995 RMK AO2 SLP135 T02940128
                 =
2015-08-02 13:54 METAR KPTW 021754Z AUTO 22007KT 10SM SCT070 29/13 A2995 RMK AO2 SLP136 T02890128
                 10289 20194 58009 =
2015-08-02 12:54 METAR KPTW 021654Z AUTO 30005KT 10SM SCT065 28/14 A2996 RMK AO2 SLP141 T02830144
                 =
2015-08-02 11:54 METAR KPTW 021554Z AUTO VRB03KT 10SM CLR 27/16 A2998 RMK AO2 SLP147 T02720161 =
2015-08-02 10:54 METAR KPTW 021454Z AUTO 22004KT 10SM CLR 26/16 A2998 RMK AO2 SLP146 T02560156
                 53008 =
2015-08-02 09:54 METAR KPTW 021354Z AUTO 31003KT 10SM CLR 25/16 A2997 RMK AO2 SLP142 T02500161 =
2015-08-02 08:54 METAR KPTW 021254Z AUTO 31006KT 10SM CLR 23/16 A2996 RMK AO2 SLP140 T02280156 =
2015-08-02 07:54 METAR KPTW 021154Z AUTO 32003KT 10SM CLR 19/16 A2995 RMK AO2 SLP137 T01940161
                 10200 20150 53010 =
2015-08-02 05:54 METAR KPTW 020954Z AUTO 00000KT 10SM CLR 16/15 A2993 RMK AO2 SLP130 T01560150 =
2015-08-02 04:54 METAR KPTW 020854Z AUTO 00000KT 10SM CLR 16/15 A2992 RMK AO2 SLP127 T01610150
                 50006 =
2015-08-02 03:54 METAR KPTW 020754Z AUTO 00000KT 10SM CLR 17/15 A2993 RMK AO2 SLP129 T01670150 =
2015-08-02 02:54 METAR KPTW 020654Z AUTO 00000KT 10SM CLR 18/16 A2992 RMK AO2 SLP125 T01830156 =
2015-08-02 01:54 METAR KPTW 020554Z AUTO 36003KT 10SM CLR 18/16 A2990 RMK AO2 SLP121 T01830156
                 10256 20178 53001 =
2015-08-02 00:54 METAR KPTW 020454Z AUTO 00000KT 10SM SCT110 20/16 A2990 RMK AO2 SLP121 T02000156
                 402940167 =
2015-08-01 23:54 METAR KPTW 020354Z AUTO 00000KT 10SM OVC120 22/16 A2989 RMK AO2 SLP116 T02170156
                 =
2015-08-01 22:54 METAR KPTW 020254Z AUTO 29004KT 10SM SCT110 22/16 A2990 RMK AO2 SLP120 T02170156
                 51016 =
2015-08-01 21:54 METAR KPTW 020154Z AUTO 00000KT 10SM FEW120 22/16 A2989 RMK AO2 SLP117 T02170161
                 =
2015-08-01 20:54 METAR KPTW 020054Z AUTO 26003KT 10SM CLR 24/16 A2987 RMK AO2 SLP111 T02440156 =
2015-08-01 19:54 METAR KPTW 012354Z AUTO 32003KT 10SM CLR 26/16 A2985 RMK AO2 SLP104 T02560161
                 10294 20256 53005 =
2015-08-01 18:54 METAR KPTW 012254Z AUTO 31005KT 10SM FEW120 26/15 A2984 RMK AO2 SLP100 T02610150
                 =
2015-08-01 17:54 METAR KPTW 012154Z AUTO 32008KT 10SM FEW120 28/14 A2984 RMK AO2 SLP099 T02830144
                 =
2015-08-01 16:54 METAR KPTW 012054Z AUTO 25010G15KT 10SM CLR 29/12 A2984 RMK AO2 SLP099 T02890117
                 56007 =

Support USWX by starting your Amazon purchase here.